Time;durP1;ratioP1;P1;durP2;ratioP2;P2;SDS_P1;SDS_P2;PMS_P1;PMS_P2;Temp;Humidity;BMP_temperature;BMP_pressure;BME280_temperature;BME280_humidity;BME280_pressure;Samples;Min_cycle;Max_cycle;Signal;HPM_P1;HPM_P2
2022/02/09 00:01:40;;;;;;;9.18;2.97;;;9.80;99.90;;;;;;5057135;28;20046;-81
2022/02/09 00:04:52;;;;;;;5.97;2.88;;;9.70;99.90;;;;;;5053706;28;20500;-80
2022/02/09 00:07:02;;;;;;;8.07;2.72;;;9.70;99.90;;;;;;5048986;28;20071;-81
2022/02/09 00:09:27;;;;;;;6.57;2.97;;;9.70;99.90;;;;;;5053248;28;20025;-82
2022/02/09 00:12:05;;;;;;;6.68;2.90;;;9.70;99.90;;;;;;5042552;28;20112;-81
2022/02/09 00:19:35;;;;;;;5.63;2.45;;;9.70;99.90;;;;;;5056244;28;20056;-82
2022/02/09 00:22:19;;;;;;;3.70;2.10;;;9.70;99.90;;;;;;5062516;28;20464;-82
2022/02/09 00:32:51;;;;;;;4.65;2.13;;;9.70;99.90;;;;;;5059147;28;20029;-82
2022/02/09 00:38:19;;;;;;;6.00;1.13;;;9.70;99.90;;;;;;5056319;28;20059;-81
2022/02/09 00:40:59;;;;;;;3.13;0.85;;;9.70;99.90;;;;;;5055943;28;20047;-82
2022/02/09 00:43:47;;;;;;;2.17;0.60;;;9.80;99.90;;;;;;5060328;28;20438;-82
2022/02/09 01:02:47;;;;;;;2.92;1.05;;;10.00;99.90;;;;;;5055973;28;20423;-82
2022/02/09 01:38:23;;;;;;;7.28;5.30;;;9.70;99.90;;;;;;5055463;28;20091;-83
2022/02/09 01:55:26;;;;;;;6.18;5.03;;;9.50;99.90;;;;;;5060718;28;20031;-81
2022/02/09 01:57:03;;;;;;;6.88;4.63;;;9.50;99.90;;;;;;5060433;28;20086;-82
2022/02/09 01:59:30;;;;;;;6.03;4.85;;;9.50;99.90;;;;;;5073953;28;20121;-81
2022/02/09 02:01:55;;;;;;;5.78;4.55;;;9.50;99.90;;;;;;5054358;28;20055;-83
2022/02/09 02:04:24;;;;;;;4.75;4.28;;;9.50;99.90;;;;;;5056715;28;20037;-83
2022/02/09 02:06:55;;;;;;;7.57;4.38;;;9.50;99.90;;;;;;5073805;28;20142;-83
2022/02/09 02:09:22;;;;;;;8.30;4.65;;;9.50;99.90;;;;;;5071774;28;20043;-82
2022/02/09 02:11:54;;;;;;;4.30;3.90;;;9.50;99.90;;;;;;5062917;28;20475;-82
2022/02/09 02:14:30;;;;;;;3.67;3.38;;;9.50;99.90;;;;;;5067346;28;20028;-82
2022/02/09 02:25:13;;;;;;;6.25;3.80;;;9.50;99.90;;;;;;5060875;28;20021;-83
2022/02/09 02:30:00;;;;;;;5.55;3.58;;;9.50;99.90;;;;;;5059788;28;20036;-82
2022/02/09 02:33:00;;;;;;;3.70;3.40;;;9.50;99.90;;;;;;5053748;28;20033;-82
2022/02/09 02:36:00;;;;;;;5.57;3.97;;;9.50;99.90;;;;;;5053595;28;20053;-82
2022/02/09 02:38:55;;;;;;;3.90;3.53;;;9.40;99.90;;;;;;5057510;28;20039;-83
2022/02/09 03:13:09;;;;;;;5.65;3.33;;;9.40;99.90;;;;;;5058434;28;20031;-82
2022/02/09 03:15:40;;;;;;;4.32;2.88;;;9.40;99.90;;;;;;5051076;28;20469;-83
2022/02/09 03:23:39;;;;;;;6.00;5.40;;;9.40;99.90;;;;;;5052301;28;20033;-82
2022/02/09 03:26:32;;;;;;;8.07;5.50;;;9.40;99.90;;;;;;5057404;28;20115;-82
2022/02/09 03:58:17;;;;;;;10.45;8.88;;;9.00;99.90;;;;;;5067350;28;20025;-83
2022/02/09 04:00:45;;;;;;;11.77;9.60;;;8.90;99.90;;;;;;5053479;28;20082;-83
2022/02/09 04:03:14;;;;;;;12.45;9.70;;;8.90;99.90;;;;;;5039248;28;20078;-83
2022/02/09 04:05:41;;;;;;;11.82;9.35;;;8.90;99.90;;;;;;5055434;28;20198;-82
2022/02/09 04:08:12;;;;;;;12.68;10.30;;;8.90;99.90;;;;;;5068350;28;20541;-83
2022/02/09 04:10:43;;;;;;;13.75;11.10;;;8.90;99.90;;;;;;5051947;28;20477;-82
2022/02/09 04:37:48;;;;;;;19.00;14.43;;;8.70;99.90;;;;;;5069508;28;20091;-83
2022/02/09 04:40:28;;;;;;;18.10;13.18;;;8.70;99.90;;;;;;5072066;28;20472;-82
2022/02/09 04:45:57;;;;;;;18.23;14.38;;;8.70;99.90;;;;;;5053895;28;20486;-81
2022/02/09 04:48:37;;;;;;;20.17;13.48;;;8.70;99.90;;;;;;5060976;28;20041;-83
2022/02/09 04:51:29;;;;;;;18.40;14.73;;;8.70;99.90;;;;;;5052289;28;20481;-82
2022/02/09 04:54:14;;;;;;;19.83;14.40;;;8.70;99.90;;;;;;5060786;28;20025;-83
2022/02/09 04:59:20;;;;;;;21.13;15.65;;;8.60;99.90;;;;;;5045327;28;20021;-82
2022/02/09 05:18:28;;;;;;;20.13;16.23;;;8.60;99.90;;;;;;4979158;28;20129;-81
2022/02/09 05:23:45;;;;;;;20.95;16.83;;;8.60;99.90;;;;;;5034605;28;20033;-82
2022/02/09 05:28:43;;;;;;;22.23;17.50;;;8.60;99.90;;;;;;5062773;28;20472;-82
2022/02/09 05:31:09;;;;;;;23.25;16.92;;;8.60;99.90;;;;;;5056749;28;20032;-82
2022/02/09 05:33:35;;;;;;;20.52;15.48;;;8.60;99.90;;;;;;5059136;28;20424;-81
2022/02/09 05:36:01;;;;;;;21.42;16.30;;;8.60;99.90;;;;;;5048715;28;20035;-81
2022/02/09 05:38:27;;;;;;;21.42;17.20;;;8.50;99.90;;;;;;5037748;28;20388;-82
2022/02/09 05:40:52;;;;;;;22.30;16.70;;;8.50;99.90;;;;;;5037410;28;20514;-81
2022/02/09 05:43:18;;;;;;;19.20;14.85;;;8.50;99.90;;;;;;5065363;28;20025;-81
2022/02/09 05:51:05;;;;;;;16.50;13.50;;;8.50;99.90;;;;;;5054579;28;20401;-81
2022/02/09 05:53:57;;;;;;;17.60;13.05;;;8.50;99.90;;;;;;5061149;28;20024;-82
2022/02/09 05:56:43;;;;;;;14.63;11.03;;;8.50;99.90;;;;;;5053895;28;20033;-81
2022/02/09 06:01:34;;;;;;;14.35;11.00;;;8.50;99.90;;;;;;5059852;28;20112;-82
2022/02/09 06:04:00;;;;;;;13.65;9.55;;;8.40;99.90;;;;;;5054665;28;20021;-82
2022/02/09 06:06:26;;;;;;;14.20;10.85;;;8.50;99.90;;;;;;5066174;28;20036;-81
2022/02/09 06:08:51;;;;;;;15.38;11.05;;;8.50;99.90;;;;;;5062378;28;20502;-81
2022/02/09 06:11:26;;;;;;;16.15;10.88;;;8.40;99.90;;;;;;5060529;28;20504;-80
2022/02/09 06:22:02;;;;;;;12.57;10.13;;;8.40;99.90;;;;;;5062451;28;20129;-81
2022/02/09 06:24:28;;;;;;;12.40;10.07;;;8.40;99.90;;;;;;5047783;28;20032;-81
2022/02/09 06:26:54;;;;;;;14.10;10.70;;;8.40;99.90;;;;;;5042747;28;20396;-81
2022/02/09 06:29:20;;;;;;;14.20;10.48;;;8.40;99.90;;;;;;5048293;28;20036;-82
2022/02/09 06:31:47;;;;;;;14.82;10.32;;;8.40;99.90;;;;;;5050033;28;20020;-81
2022/02/09 06:34:18;;;;;;;13.98;10.48;;;8.40;99.90;;;;;;5053323;28;20052;-83
2022/02/09 06:36:49;;;;;;;12.68;10.57;;;8.40;99.90;;;;;;5073248;28;20028;-83
2022/02/09 06:39:16;;;;;;;14.00;11.25;;;8.40;99.90;;;;;;5060262;28;20025;-83
2022/02/09 06:41:42;;;;;;;14.80;11.10;;;8.40;99.90;;;;;;5058248;28;20029;-82
2022/02/09 06:44:10;;;;;;;25.88;11.05;;;8.40;99.90;;;;;;5036825;28;20021;-83
2022/02/09 06:46:37;;;;;;;12.32;9.32;;;8.40;99.90;;;;;;5053969;28;20108;-83
2022/02/09 06:49:08;;;;;;;13.07;9.57;;;8.40;99.90;;;;;;5036938;28;20108;-83
2022/02/09 06:51:37;;;;;;;15.82;9.90;;;8.40;99.90;;;;;;5053464;28;20025;-83
2022/02/09 06:54:12;;;;;;;11.93;9.57;;;8.40;99.90;;;;;;5060126;28;20499;-82
2022/02/09 06:59:28;;;;;;;16.02;9.90;;;8.30;99.90;;;;;;5053247;28;20496;-82
2022/02/09 07:01:53;;;;;;;13.35;10.18;;;8.30;99.90;;;;;;5053051;28;20036;-82
2022/02/09 07:04:19;;;;;;;14.43;10.73;;;8.30;99.90;;;;;;5038293;28;20025;-82
2022/02/09 07:06:45;;;;;;;13.23;10.07;;;8.30;99.90;;;;;;5051803;28;20045;-82
2022/02/09 07:09:10;;;;;;;11.35;8.57;;;8.30;99.90;;;;;;5061971;28;20056;-82
2022/02/09 07:11:36;;;;;;;11.63;9.05;;;8.30;99.90;;;;;;5038293;28;20448;-81
2022/02/09 07:14:02;;;;;;;10.55;9.05;;;8.30;99.90;;;;;;5058374;28;20070;-82
2022/02/09 07:16:29;;;;;;;12.75;9.40;;;8.30;99.90;;;;;;5051556;28;20029;-83
2022/02/09 07:18:55;;;;;;;12.23;9.23;;;8.30;99.90;;;;;;5056735;28;20371;-82
2022/02/09 07:21:27;;;;;;;11.23;8.68;;;8.30;99.90;;;;;;5052922;28;20121;-84
2022/02/09 07:23:56;;;;;;;13.80;9.70;;;8.30;99.90;;;;;;5064461;28;20068;-83
2022/02/09 07:26:28;;;;;;;12.18;8.95;;;8.30;99.90;;;;;;5061334;28;20111;-84
2022/02/09 07:28:54;;;;;;;14.20;9.50;;;8.30;99.90;;;;;;5060012;28;20112;-83
2022/02/09 07:31:21;;;;;;;14.70;11.23;;;8.30;99.90;;;;;;5062598;28;20107;-82
2022/02/09 07:33:47;;;;;;;14.35;10.70;;;8.30;99.90;;;;;;5053999;28;20044;-82
2022/02/09 07:36:14;;;;;;;12.18;9.70;;;8.30;99.90;;;;;;5064445;28;20396;-82
2022/02/09 07:38:40;;;;;;;15.30;11.95;;;8.40;99.90;;;;;;5066200;28;20020;-82
2022/02/09 07:41:07;;;;;;;14.57;10.48;;;8.40;99.90;;;;;;5066480;28;20025;-82
2022/02/09 07:43:44;;;;;;;16.30;11.43;;;8.40;99.90;;;;;;5065531;28;20025;-82
2022/02/09 07:53:58;;;;;;;17.50;12.75;;;8.40;99.90;;;;;;5056481;28;20025;-82
2022/02/09 07:56:25;;;;;;;15.75;12.93;;;8.40;99.90;;;;;;5056910;28;20032;-82
2022/02/09 07:58:51;;;;;;;17.90;14.35;;;8.40;99.90;;;;;;5062697;28;20033;-81
2022/02/09 08:01:16;;;;;;;18.20;13.73;;;8.40;99.90;;;;;;5052667;28;20503;-82
2022/02/09 08:03:42;;;;;;;22.13;15.43;;;8.50;99.90;;;;;;5058226;28;20369;-80
2022/02/09 08:06:09;;;;;;;22.30;15.25;;;8.50;99.90;;;;;;5052321;28;20044;-81
2022/02/09 08:08:35;;;;;;;19.55;15.27;;;8.50;99.90;;;;;;5055361;28;20025;-79
2022/02/09 08:11:19;;;;;;;18.45;14.55;;;8.50;99.90;;;;;;5050960;28;20029;-81
2022/02/09 08:34:57;;;;;;;23.00;16.58;;;8.60;99.90;;;;;;5056621;28;20057;-82
2022/02/09 08:37:23;;;;;;;22.00;15.23;;;8.60;99.90;;;;;;5056873;28;20511;-82
2022/02/09 08:39:50;;;;;;;21.35;16.13;;;8.60;99.90;;;;;;5037774;28;20127;-82
2022/02/09 08:42:17;;;;;;;18.45;14.75;;;8.60;99.90;;;;;;5040533;28;20024;-82
2022/02/09 08:44:42;;;;;;;23.25;16.77;;;8.50;99.90;;;;;;5041061;28;20029;-82
2022/02/09 08:47:08;;;;;;;21.83;16.65;;;8.50;99.90;;;;;;5058413;28;20044;-83
2022/02/09 08:49:34;;;;;;;22.05;15.40;;;8.50;99.90;;;;;;5042496;28;20116;-81
2022/02/09 08:52:01;;;;;;;20.05;14.65;;;8.50;99.90;;;;;;5056828;28;20028;-81
2022/02/09 08:54:27;;;;;;;23.30;15.95;;;8.50;99.90;;;;;;5055261;28;20025;-82
2022/02/09 08:56:55;;;;;;;18.98;14.13;;;8.60;99.90;;;;;;5057714;28;20108;-81
2022/02/09 08:59:26;;;;;;;22.30;15.30;;;8.60;99.90;;;;;;5055315;28;20025;-81
2022/02/09 09:01:57;;;;;;;18.58;14.02;;;8.60;99.90;;;;;;5060109;28;20086;-81
2022/02/09 09:04:28;;;;;;;18.48;13.80;;;8.60;99.90;;;;;;5036634;28;20036;-81
2022/02/09 09:06:56;;;;;;;18.42;14.20;;;8.60;99.90;;;;;;5073242;28;20051;-81
2022/02/09 09:18:02;;;;;;;19.42;13.50;;;8.60;99.90;;;;;;5036828;28;20124;-80
2022/02/09 10:04:38;;;;;;;16.38;11.63;;;9.00;99.90;;;;;;5057603;28;20376;-80
2022/02/09 10:33:12;;;;;;;17.55;13.73;;;9.30;99.90;;;;;;5055149;28;20115;-80
2022/02/09 10:35:43;;;;;;;17.50;13.05;;;9.40;99.90;;;;;;5062252;28;20028;-82
2022/02/09 10:38:34;;;;;;;17.35;13.07;;;9.40;99.90;;;;;;5061879;28;20392;-82
2022/02/09 10:41:30;;;;;;;15.88;11.52;;;9.40;99.90;;;;;;5052916;28;20041;-82
2022/02/09 10:44:16;;;;;;;14.82;11.30;;;9.50;99.90;;;;;;5058908;28;20251;-82
2022/02/09 10:46:50;;;;;;;14.43;11.20;;;9.50;99.90;;;;;;5041966;28;20040;-81
2022/02/09 10:49:19;;;;;;;13.48;10.35;;;9.50;99.90;;;;;;5038952;28;20452;-81
2022/02/09 10:54:16;;;;;;;15.20;11.13;;;9.60;99.90;;;;;;5060833;28;20025;-82
2022/02/09 10:56:47;;;;;;;15.80;11.68;;;9.60;99.90;;;;;;5052430;28;20036;-82
2022/02/09 10:59:15;;;;;;;13.35;10.27;;;9.70;99.90;;;;;;5037824;28;20275;-79
2022/02/09 11:01:42;;;;;;;15.32;10.80;;;9.70;99.90;;;;;;5044939;28;20392;-80
2022/02/09 11:04:09;;;;;;;13.43;9.82;;;9.70;99.90;;;;;;5065901;28;20024;-80
2022/02/09 11:06:46;;;;;;;11.10;8.98;;;9.70;99.90;;;;;;5056033;28;20063;-80
2022/02/09 11:09:17;;;;;;;13.07;9.40;;;9.70;99.90;;;;;;5051915;28;20104;-80
2022/02/09 11:11:43;;;;;;;12.20;9.50;;;9.70;99.90;;;;;;5052367;28;20017;-79
2022/02/09 11:14:14;;;;;;;11.50;9.13;;;9.70;99.90;;;;;;5057206;28;20029;-78
2022/02/09 11:16:49;;;;;;;12.43;9.73;;;9.70;99.90;;;;;;5046062;28;20032;-78
2022/02/09 11:19:17;;;;;;;13.95;9.20;;;9.70;99.90;;;;;;5048981;28;20032;-79
2022/02/09 11:21:49;;;;;;;11.70;9.38;;;9.80;99.90;;;;;;5040570;28;20021;-80
2022/02/09 11:24:16;;;;;;;12.52;9.25;;;9.80;99.90;;;;;;5062788;28;20052;-80
2022/02/09 11:30:00;;;;;;;14.35;10.30;;;9.90;99.90;;;;;;5072012;28;20103;-80
2022/02/09 11:35:41;;;;;;;13.63;10.07;;;9.90;99.90;;;;;;5051675;28;20041;-78
2022/02/09 11:40:53;;;;;;;12.77;9.40;;;9.80;99.90;;;;;;5056103;28;20071;-81
2022/02/09 11:43:32;;;;;;;11.88;9.70;;;9.90;99.90;;;;;;5032949;28;20132;-82
2022/02/09 11:55:10;;;;;;;14.02;9.88;;;10.00;99.90;;;;;;5058848;28;20048;-80
2022/02/09 11:58:38;;;;;;;;;;;10.10;99.90;;;;;;5051392;28;20098;-80
2022/02/09 12:12:02;;;;;;;13.80;8.15;;;10.20;99.90;;;;;;5072169;28;20094;-79
2022/02/09 12:15:42;;;;;;;11.85;8.07;;;10.20;99.90;;;;;;5037848;28;20067;-81
2022/02/09 12:20:25;;;;;;;10.15;7.60;;;10.20;99.90;;;;;;5063805;28;20024;-81
2022/02/09 12:25:41;;;;;;;12.52;8.00;;;10.10;99.90;;;;;;5055906;28;20100;-81
2022/02/09 12:28:13;;;;;;;9.77;7.30;;;10.10;99.90;;;;;;5055967;28;20032;-82
2022/02/09 12:30:39;;;;;;;10.95;7.00;;;10.00;99.90;;;;;;5056097;28;20021;-82
2022/02/09 12:33:04;;;;;;;11.77;8.13;;;10.10;99.90;;;;;;5069576;28;20052;-82
2022/02/09 12:35:30;;;;;;;9.88;7.50;;;10.00;99.90;;;;;;5061297;28;20080;-82
2022/02/09 12:37:56;;;;;;;9.90;7.57;;;10.00;99.90;;;;;;5055597;28;20480;-81
2022/02/09 12:40:23;;;;;;;11.93;8.07;;;10.00;99.90;;;;;;5055165;28;20118;-82
2022/02/09 12:42:53;;;;;;;11.43;7.82;;;10.00;99.90;;;;;;5055431;28;20033;-83
2022/02/09 12:45:22;;;;;;;10.85;7.50;;;9.90;99.90;;;;;;5036771;28;20064;-81
2022/02/09 12:47:53;;;;;;;13.98;8.50;;;9.90;99.90;;;;;;5037382;28;20370;-82
2022/02/09 12:50:26;;;;;;;10.35;7.85;;;9.90;99.90;;;;;;5042473;28;20029;-82
2022/02/09 12:52:53;;;;;;;10.30;8.63;;;9.90;99.90;;;;;;5058108;28;20484;-83
2022/02/09 12:55:27;;;;;;;12.65;8.73;;;10.00;99.90;;;;;;5060505;28;20082;-79
2022/02/09 12:58:19;;;;;;;10.55;8.02;;;10.10;99.90;;;;;;5068383;28;20033;-80
2022/02/09 13:00:48;;;;;;;12.25;9.57;;;10.10;99.90;;;;;;5042904;28;20481;-80
2022/02/09 13:03:20;;;;;;;12.85;9.35;;;10.10;99.90;;;;;;5038565;28;20040;-79
2022/02/09 13:05:51;;;;;;;10.18;8.93;;;10.10;99.90;;;;;;5054791;28;20060;-80
2022/02/09 13:08:29;;;;;;;11.82;8.52;;;10.20;99.90;;;;;;5058820;28;20024;-79
2022/02/09 13:11:15;;;;;;;10.55;8.98;;;10.20;99.90;;;;;;5036980;28;20021;-80
2022/02/09 13:13:44;;;;;;;11.68;9.38;;;10.20;99.90;;;;;;5039836;28;20123;-81
2022/02/09 13:16:31;;;;;;;12.18;9.77;;;10.30;99.90;;;;;;5045805;28;20480;-81
2022/02/09 13:19:09;;;;;;;11.20;9.00;;;10.30;99.90;;;;;;5039319;28;20186;-79
2022/02/09 13:52:54;;;;;;;14.07;10.82;;;10.20;99.90;;;;;;5065568;28;20036;-82
2022/02/09 14:02:55;;;;;;;16.40;11.93;;;10.20;99.90;;;;;;5053547;28;20136;-82
2022/02/09 14:11:43;;;;;;;18.15;12.82;;;10.10;99.90;;;;;;5057619;28;20521;-82
2022/02/09 14:50:35;;;;;;;18.08;12.65;;;10.20;99.90;;;;;;5055318;28;20480;-82
2022/02/09 14:53:00;;;;;;;16.88;12.45;;;10.10;99.90;;;;;;5052204;28;20025;-82
2022/02/09 14:55:46;;;;;;;;;;;10.20;99.90;;;;;;5052883;28;20021;-81
2022/02/09 14:58:14;;;;;;;16.05;11.02;;;10.20;99.90;;;;;;5053129;28;20344;-82
2022/02/09 15:00:56;;;;;;;18.13;13.23;;;10.20;99.90;;;;;;5053522;28;20017;-82
2022/02/09 15:03:42;;;;;;;14.40;10.80;;;10.20;99.90;;;;;;5052050;28;20025;-82
2022/02/09 15:11:33;;;;;;;12.98;9.63;;;10.30;99.90;;;;;;5052367;28;20465;-82
2022/02/09 15:16:34;;;;;;;10.27;8.60;;;10.40;99.90;;;;;;5060674;28;20028;-80
2022/02/09 15:21:59;;;;;;;11.75;8.02;;;10.40;99.90;;;;;;5051963;28;20083;-80
2022/02/09 15:24:12;;;;;;;11.05;7.90;;;10.50;99.90;;;;;;5051712;28;20044;-80
2022/02/09 15:26:37;;;;;;;10.88;8.13;;;10.50;99.90;;;;;;5058494;28;20025;-80
2022/02/09 15:29:03;;;;;;;12.40;9.05;;;10.40;99.90;;;;;;5041643;28;20027;-80
2022/02/09 15:31:40;;;;;;;10.45;8.98;;;10.40;99.90;;;;;;5040523;28;20025;-80
2022/02/09 15:34:15;;;;;;;11.02;8.20;;;10.50;99.90;;;;;;5052694;28;20128;-80
2022/02/09 15:39:14;;;;;;;12.95;9.02;;;10.40;99.90;;;;;;5051730;28;20025;-82
2022/02/09 15:41:59;;;;;;;13.93;7.93;;;10.40;99.90;;;;;;5051446;28;20154;-80
2022/02/09 16:06:48;;;;;;;10.05;7.93;;;10.50;99.90;;;;;;5051286;28;20056;-81
2022/02/09 16:11:45;;;;;;;10.52;7.80;;;10.50;99.90;;;;;;5051538;28;20025;-81
2022/02/09 16:22:01;;;;;;;10.73;7.80;;;10.40;99.90;;;;;;5058361;28;20127;-81
2022/02/09 16:24:32;;;;;;;10.55;7.65;;;10.40;99.90;;;;;;5033668;28;20404;-81
2022/02/09 16:38:06;;;;;;;10.60;7.47;;;10.30;99.90;;;;;;5050972;28;20228;-81
2022/02/09 16:48:25;;;;;;;12.00;9.60;;;10.10;99.90;;;;;;5053925;28;20033;-81
2022/02/09 16:50:52;;;;;;;11.95;8.98;;;10.10;99.90;;;;;;5032952;28;20030;-82
2022/02/09 16:53:43;;;;;;;11.43;8.85;;;10.00;99.90;;;;;;5032431;28;20029;-82
2022/02/09 16:56:37;;;;;;;12.70;9.60;;;10.00;99.90;;;;;;5052261;28;20465;-81
2022/02/09 17:20:38;;;;;;;18.58;9.57;;;10.00;99.90;;;;;;5053060;28;20078;-78
2022/02/09 17:23:04;;;;;;;11.80;9.10;;;10.10;99.90;;;;;;5064130;28;20025;-80
2022/02/09 17:25:30;;;;;;;13.77;10.18;;;10.10;99.90;;;;;;5061600;28;20028;-80
2022/02/09 17:27:56;;;;;;;11.38;9.85;;;10.10;99.90;;;;;;5067033;28;20041;-79
2022/02/09 17:30:51;;;;;;;12.85;10.60;;;10.10;99.90;;;;;;5059220;28;20246;-79
2022/02/09 17:35:49;;;;;;;18.98;12.05;;;10.10;99.90;;;;;;5053305;28;20025;-79
2022/02/09 17:38:34;;;;;;;16.05;11.23;;;10.20;99.90;;;;;;5052188;28;20021;-80
2022/02/09 17:57:34;;;;;;;18.65;11.38;;;10.00;99.90;;;;;;5063119;28;20039;-80
2022/02/09 18:00:16;;;;;;;20.80;13.70;;;10.00;99.90;;;;;;5064953;28;20016;-80
2022/02/09 18:02:52;;;;;;;16.73;12.88;;;10.00;99.90;;;;;;5054793;28;20028;-79
2022/02/09 18:05:24;;;;;;;18.45;13.35;;;10.00;99.90;;;;;;5052803;28;20029;-79
2022/02/09 18:07:55;;;;;;;17.40;13.32;;;9.90;99.90;;;;;;5052606;28;20090;-79
2022/02/09 18:10:29;;;;;;;21.30;14.50;;;9.90;99.90;;;;;;5057011;28;20074;-79
2022/02/09 18:25:16;;;;;;;18.67;13.82;;;9.70;99.90;;;;;;5056785;28;20137;-79
2022/02/09 18:29:28;;;;;;;21.52;16.00;;;9.70;99.90;;;;;;5068363;28;20087;-81
2022/02/09 18:32:11;;;;;;;22.30;15.85;;;9.70;99.90;;;;;;5061379;28;20111;-80
2022/02/09 19:04:27;;;;;;;25.63;16.88;;;9.70;99.90;;;;;;5075632;28;20035;-79
2022/02/09 19:20:02;;;;;;;26.27;18.85;;;9.50;99.90;;;;;;5058788;28;20028;-79
2022/02/09 19:31:05;;;;;;;25.45;17.80;;;9.10;99.90;;;;;;4979191;28;20406;-80
2022/02/09 19:42:36;;;;;;;25.02;17.95;;;8.80;99.90;;;;;;5053879;28;20079;-80
2022/02/09 19:47:46;;;;;;;25.92;18.25;;;8.70;99.90;;;;;;5024038;28;20655;-81
2022/02/09 19:50:31;;;;;;;30.13;18.83;;;8.70;99.90;;;;;;5057524;28;20025;-80
2022/02/09 19:55:50;;;;;;;28.88;19.23;;;8.70;99.90;;;;;;5056292;28;20032;-80
2022/02/09 19:58:19;;;;;;;28.08;19.23;;;8.70;99.90;;;;;;5060356;28;20032;-81
2022/02/09 20:00:45;;;;;;;28.67;18.27;;;8.70;99.90;;;;;;5054880;28;20017;-81
2022/02/09 20:03:10;;;;;;;29.73;18.60;;;8.60;99.90;;;;;;5052527;28;20037;-81
2022/02/09 20:05:36;;;;;;;26.42;17.90;;;8.70;99.90;;;;;;5053756;28;20029;-81
2022/02/09 20:08:04;;;;;;;28.13;19.33;;;8.70;99.90;;;;;;5055305;28;20044;-80
2022/02/09 20:10:30;;;;;;;31.92;22.20;;;8.70;99.90;;;;;;5051576;28;20099;-81
2022/02/09 20:12:56;;;;;;;28.52;20.73;;;8.70;99.90;;;;;;5057534;28;20025;-81
2022/02/09 20:15:22;;;;;;;30.98;21.35;;;8.70;99.90;;;;;;5051658;28;20108;-79
2022/02/09 20:17:48;;;;;;;33.78;21.23;;;8.70;99.90;;;;;;5055036;28;20086;-80
2022/02/09 20:20:22;;;;;;;33.80;22.08;;;8.70;99.90;;;;;;5046295;28;20025;-81
2022/02/09 20:22:49;;;;;;;32.63;20.52;;;8.70;99.90;;;;;;5046524;28;20037;-81
2022/02/09 20:25:17;;;;;;;27.67;19.75;;;8.70;99.90;;;;;;5042927;28;20033;-80
2022/02/09 20:27:43;;;;;;;28.65;19.75;;;8.70;99.90;;;;;;5045975;28;20031;-80
2022/02/09 20:30:10;;;;;;;31.60;22.50;;;8.70;99.90;;;;;;5045734;28;20392;-80
2022/02/09 20:32:42;;;;;;;31.58;21.83;;;8.70;99.90;;;;;;5044154;28;20040;-80
2022/02/09 20:35:11;;;;;;;33.97;21.97;;;8.70;99.90;;;;;;5061690;28;20045;-80
2022/02/09 20:37:42;;;;;;;27.67;19.48;;;8.80;99.90;;;;;;5057852;28;20025;-80
2022/02/09 20:40:18;;;;;;;31.58;20.98;;;8.80;99.90;;;;;;5068140;28;20061;-80
2022/02/09 20:42:56;;;;;;;29.70;21.08;;;8.80;99.90;;;;;;5060757;28;20040;-80
2022/02/09 20:45:28;;;;;;;33.17;20.25;;;8.80;99.90;;;;;;5057098;28;20456;-81
2022/02/09 20:48:00;;;;;;;30.77;21.48;;;8.80;99.90;;;;;;5060741;28;20070;-81
2022/02/09 20:50:27;;;;;;;29.52;19.77;;;8.90;99.90;;;;;;5049862;28;20111;-80
2022/02/09 20:52:52;;;;;;;29.13;19.48;;;8.90;99.90;;;;;;5062287;28;20025;-81
2022/02/09 20:55:18;;;;;;;32.17;20.83;;;8.90;99.90;;;;;;5060210;28;20025;-80
2022/02/09 20:57:43;;;;;;;34.53;21.88;;;8.80;99.90;;;;;;5061040;28;20047;-80
2022/02/09 21:00:18;;;;;;;33.25;21.00;;;8.80;99.90;;;;;;5046049;28;20462;-80
2022/02/09 21:07:56;;;;;;;30.25;20.55;;;8.80;99.90;;;;;;5059465;28;20080;-81
2022/02/09 21:10:41;;;;;;;29.95;20.20;;;8.80;99.90;;;;;;5057036;28;20016;-81
2022/02/09 21:13:15;;;;;;;40.97;23.73;;;8.80;99.90;;;;;;5054907;28;20025;-81
2022/02/09 21:24:10;;;;;;;38.65;25.27;;;8.70;99.90;;;;;;5074621;28;20028;-81
2022/02/09 21:45:55;;;;;;;36.22;24.77;;;8.80;99.90;;;;;;5056255;28;20044;-81
2022/02/09 21:56:20;;;;;;;38.53;23.50;;;8.80;99.90;;;;;;5062423;28;20029;-80
2022/02/09 22:07:00;;;;;;;39.42;24.45;;;8.70;99.90;;;;;;5054435;28;20562;-81
2022/02/09 22:27:58;;;;;;;43.38;26.40;;;8.60;99.90;;;;;;5060710;28;20095;-81
2022/02/09 22:56:36;;;;;;;44.15;26.98;;;8.70;99.90;;;;;;5059038;28;20550;-80
2022/02/09 22:59:06;;;;;;;44.67;28.23;;;8.80;99.90;;;;;;5036917;28;20029;-79
2022/02/09 23:01:37;;;;;;;44.88;27.88;;;8.70;99.90;;;;;;5038099;28;20033;-81
2022/02/09 23:04:35;;;;;;;45.80;28.10;;;8.80;99.90;;;;;;5064878;28;20024;-81
2022/02/09 23:07:12;;;;;;;44.67;28.67;;;8.80;99.90;;;;;;5052766;28;20408;-81
2022/02/09 23:12:20;;;;;;;48.00;28.38;;;8.80;99.90;;;;;;5063271;28;20059;-81
2022/02/09 23:23:40;;;;;;;49.35;28.52;;;8.90;99.90;;;;;;5053964;28;20043;-81
2022/02/09 23:53:42;;;;;;;46.00;27.65;;;8.90;99.90;;;;;;5057208;28;20068;-80
